Mudgee, New South Wales

8:18 AM AEST on September 04, 2015 (GMT +1000)
Itrons Weather Station | | Change Station
CLOSE
Current Station
Personal Weather Station
Location: Mudgee, NEW SOUTH WALES
Elevation: 1490 ft
Nearby Weather Stations

Elev 1490 ft 32.59 °S, 149.57 °E | Updated 4 seconds ago

Overcast
Overcast
43.3 °F
Feels Like 43 °F
N
0.0
Wind Variable Wind from SSE
Gusts 1.0 mph

Today
High -- | Low -- °F
--% Chance of Precip.
Yesterday
High -- | Low -- °F
Precip. -- in
6:16 AM 5:46 PM
Waning Gibbous, 66% visible
Pressure 30.18 in
Visibility -9999.0 miles
Clouds Overcast 3100 ft
Windchill 43 °F
Dew Point 41 °F
Humidity 90%
Rainfall 0.00 in
Snow Depth Not available.
UV 0 out of 12
Pollen Not available.
Air Quality Not available.
Flu Activity Not available.
METAR YMDG 032200Z AUTO 07004KT //// // OVC031 06/06 Q1022
Pressure 30.18 in
Visibility -9999.0 miles
Clouds Overcast 3100 ft
Windchill 43 °F
Dew Point 41 °F
Humidity 90%
Rainfall 0.00 in
Snow Depth Not available.
UV 0 out of 12
Pollen Not available.
Air Quality Not available.
Flu Activity Not available.
METAR YMDG 032200Z AUTO 07004KT //// // OVC031 06/06 Q1022

10-Day Weather Forecast

×

Almanac

Astronomy

Sep. 04, 2015 Rise Set
Actual Time
Civil Twilight
Nautical Twilight
Astronomical Twilight
Moon
Length of Visible Light
Length of Day
Tomorrow will be .
, % of the Moon is Illuminated

Today's Extremes

Country Highs Country Lows

Community

WunderPhotos

Upload Photos

1,852,048 photos uploaded!

WunderBlogs® & News

Nearby

Air Quality

  Air Quality AQ Index Pollutant
Not available.

Snow Depth

Station Depth Elevation

Earthquake Activity

City Distance Mag. Time & Date
Minimum magnitude displayed is 2.5.

Coastal Water Temperatures

Place Temperature

Stations

Nearby Weather Stations

Station Location Temp. Windchill Dew Point Humidity Wind Precip. Elev Updated Type